Nearby METAR Reports

 

KHYR - Hayward, Wisconsin, USA
Distance from station: WNW 20mi, 33km
Updated: Mon, 28-Nov-2022 2:53pm CST
Overcast
Overcast
 Wind from SSE
Wind: SSE 10 mph , 17 km/h, Gust: 18 mph , 30 km/h
Temperature: 36°F , 2°C
Wind Chill: 29°F , -2°C
Dew Point: 23°F , -5°C
Humidity: 60%
Barometer: 29.64 inHg , 1003.7 hPa
Clouds: Overcast
Visibility: 10 miles , 16 km
Cloud details: Overcast 6000 ft
2022/11/28 20:53 KHYR 282053Z AUTO 16009G16KT 10SM OVC060 02/M05 A2964 RMK AO2 SLP054 T00221050 55015
KRCX - Ladysmith/Rusk, Wisconsin, USA
Distance from station: S 27mi, 43km
Updated: Mon, 28-Nov-2022 2:55pm CST
Overcast
Overcast
 Wind from SE
Wind: SE 12 mph , 19 km/h, Gust: 18 mph , 30 km/h
Temperature: 37°F , 3°C
Wind Chill: 29°F , -2°C
Dew Point: 30°F , -1°C
Humidity: 75%
Barometer: 29.67 inHg , 1004.7 hPa
Clouds: Overcast
Visibility: 10 miles , 16 km
Cloud details: Overcast 6000 ft
2022/11/28 20:55 KRCX 282055Z AUTO 14010G16KT 10SM OVC060 03/M01 A2967 RMK AO2 T00301010
 
KPBH - Phillips/Price, Wisconsin, USA
Distance from station: ESE 35mi, 56km
Updated: Mon, 28-Nov-2022 2:55pm CST
Mostly cloudy
Mostly cloudy
 Wind from SSE
Wind: SSE 9 mph , 15 km/h, Gust: 16 mph , 26 km/h
Temperature: 36°F , 2°C
Wind Chill: 29°F , -2°C
Dew Point: 25°F , -4°C
Humidity: 65%
Barometer: 29.68 inHg , 1005.1 hPa
Clouds: Mostly cloudy
Visibility: 10 miles , 16 km
Cloud details: Mostly cloudy 6000 ft
Mostly cloudy 7000 ft
Mostly cloudy 10000 ft
2022/11/28 20:55 KPBH 282055Z AUTO 16008G14KT 10SM BKN060 BKN070 BKN100 02/M04 A2968 RMK AO2 T00181041
KRPD - Rice Lake, Wisconsin, USA
Distance from station: SW 46mi, 75km
Updated: Mon, 28-Nov-2022 2:55pm CST
Clear
Clear
 Wind from SSE
Wind: SSE 13 mph , 20 km/h, Gust: 17 mph , 28 km/h
Temperature: 37°F , 3°C
Wind Chill: 29°F , -2°C
Dew Point: 28°F , -2°C
Humidity: 70%
Barometer: 29.66 inHg , 1004.4 hPa
Clouds: Clear
Visibility: 10 miles , 16 km
2022/11/28 20:55 KRPD 282055Z AUTO 15011G15KT 10SM CLR 03/M02 A2966 RMK AO2 T00311016
 
KASX - Ashland, Wisconsin, USA
Distance from station: N 47mi, 75km
Updated: Mon, 28-Nov-2022 2:53pm CST
Overcast
Overcast
 Wind from ESE
Wind: ESE 7 mph , 11 km/h
Temperature: 37°F , 3°C
Wind Chill: 32°F , 0°C
Dew Point: 25°F , -4°C
Humidity: 60%
Barometer: 29.68 inHg , 1005.1 hPa
Clouds: Overcast
Visibility: 10 miles , 16 km
Cloud details: Overcast 3800 ft
2022/11/28 20:53 KASX 282053Z AUTO 11006KT 10SM OVC038 03/M04 A2968 RMK AO2 SLP060 T00331044 56017
KOLG - Solon Springs, Wisconsin, USA
Distance from station: NW 47mi, 75km
Updated: Mon, 28-Nov-2022 2:55pm CST
Overcast
Overcast
 Wind from SSE
Wind: SSE 8 mph , 13 km/h
Temperature: 34°F , 1°C
Wind Chill: 27°F , -3°C
Dew Point: 21°F , -6°C
Humidity: 60%
Barometer: 29.62 inHg , 1003 hPa
Clouds: Overcast
Visibility: 10 miles , 16 km
Cloud details: Overcast 4700 ft
2022/11/28 20:55 KOLG 282055Z AUTO 15007KT 10SM OVC047 01/M06 A2962 RMK AO1
 
KY23 - Chetek, Wisconsin, USA
Distance from station: SW 48mi, 78km
Updated: Mon, 28-Nov-2022 2:55pm CST
Clear
Clear
 Wind from SSE
Wind: SSE 5 mph , 7 km/h
Temperature: 39°F , 4°C
Wind Chill: 35°F , 2°C
Dew Point: 30°F , -1°C
Humidity: 70%
Barometer: 29.67 inHg , 1004.7 hPa
Clouds: Clear
Visibility: 10 miles , 16 km
2022/11/28 20:55 KY23 282055Z AUTO 15004KT 10SM CLR 04/M01 A2967 RMK AO2 T00391015
KUBE - Cumberland, Wisconsin, USA
Distance from station: WSW 51mi, 82km
Updated: Mon, 28-Nov-2022 2:55pm CST
Clear
Clear
 Wind from SSE
Wind: SSE 13 mph , 20 km/h
Temperature: 36°F , 2°C
Wind Chill: 27°F , -3°C
Dew Point: 32°F , 0°C
Humidity: 87%
Barometer: 29.64 inHg , 1003.7 hPa
Clouds: Clear
Visibility: 10 miles , 16 km
2022/11/28 20:55 KUBE 282055Z AUTO 16011KT 10SM CLR 02/00 A2964 RMK AO2
 
KD25 - Manitowish Water, Wisconsin, USA
Distance from station: ENE 59mi, 96km
Updated: Mon, 28-Nov-2022 2:55pm CST
Partly cloudy
Partly cloudy
 Wind from SSE
Wind: SSE 12 mph , 19 km/h, Gust: 16 mph , 26 km/h
Temperature: 34°F , 1°C
Wind Chill: 25°F , -4°C
Dew Point: 23°F , -5°C
Humidity: 65%
Barometer: 29.69 inHg , 1005.4 hPa
Clouds: Partly cloudy
Visibility: 10 miles , 16 km
Cloud details: Partly cloudy 9000 ft
Partly cloudy 12000 ft
2022/11/28 20:55 KD25 282055Z AUTO 15010G14KT 10SM SCT090 SCT120 01/M05 A2969 RMK AO2 T00111048
KRZN - Siren, Wisconsin, USA
Distance from station: W 62mi, 100km
Updated: Mon, 28-Nov-2022 2:55pm CST
Clear
Clear
 Wind from SSE
Wind: SSE 12 mph , 19 km/h
Temperature: 37°F , 3°C
Wind Chill: 29°F , -2°C
Dew Point: 25°F , -4°C
Humidity: 60%
Barometer: 29.62 inHg , 1003 hPa
Clouds: Clear
Visibility: 10 miles , 16 km
2022/11/28 20:55 KRZN 282055Z AUTO 16010KT 10SM CLR 03/M04 A2962 RMK AO2 T00291045
 
KIWD - Ironwood, Michigan, USA
Distance from station: NE 63mi, 102km
Updated: Mon, 28-Nov-2022 2:56pm CST
Overcast
Overcast
 Wind from SSE
Wind: SSE 9 mph , 15 km/h
Temperature: 36°F , 2°C
Wind Chill: 29°F , -2°C
Dew Point: 23°F , -5°C
Humidity: 60%
Barometer: 29.68 inHg , 1005.1 hPa
Clouds: Overcast
Visibility: 10 miles , 16 km
Cloud details: Mostly cloudy 8000 ft
Overcast 9500 ft
2022/11/28 20:56 KIWD 282056Z AUTO 16008KT 10SM BKN080 OVC095 02/M05 A2968 RMK AO2 SLP064 T00171050 56017 FZRANO
K4R5 - La Pointe, Wisconsin, USA
Distance from station: NNE 64mi, 103km
Updated: Mon, 28-Nov-2022 2:55pm CST
Overcast
Overcast
 Wind from SE
Wind: SE 3 mph , 6 km/h
Temperature: 37°F , 3°C
Dew Point: 25°F , -4°C
Humidity: 60%
Barometer: 29.69 inHg , 1005.4 hPa
Clouds: Overcast
Visibility: 10 miles , 16 km
Cloud details: Partly cloudy 5500 ft
Mostly cloudy 6500 ft
Overcast 9000 ft
2022/11/28 20:55 K4R5 282055Z AUTO 14003KT 10SM SCT055 BKN065 OVC090 03/M04 A2969 RMK AO2 T00301040
 
KARV - Minocqua/Woodruf, Wisconsin, USA
Distance from station: E 65mi, 105km
Updated: Mon, 28-Nov-2022 2:55pm CST
Clear
Clear
 Wind from SSE
Wind: SSE 14 mph , 22 km/h, Gust: 22 mph , 35 km/h
Temperature: 36°F , 2°C
Wind Chill: 27°F , -3°C
Dew Point: 23°F , -5°C
Humidity: 60%
Barometer: 29.69 inHg , 1005.4 hPa
Clouds: Clear
Visibility: 10 miles , 16 km
2022/11/28 20:55 KARV 282055Z AUTO 16012G19KT 10SM CLR 02/M05 A2969 RMK AO2 T00151047
KMDZ - Medford, Wisconsin, USA
Distance from station: SE 66mi, 106km
Updated: Mon, 28-Nov-2022 2:55pm CST
Overcast
Overcast
 Wind from SSE
Wind: SSE 10 mph , 17 km/h, Gust: 18 mph , 30 km/h
Temperature: 37°F , 3°C
Wind Chill: 30°F , -1°C
Dew Point: 28°F , -2°C
Humidity: 70%
Barometer: 29.69 inHg , 1005.4 hPa
Clouds: Overcast
Visibility: 10 miles , 16 km
Cloud details: Overcast 9500 ft
2022/11/28 20:55 KMDZ 282055Z AUTO 15009G16KT 10SM OVC095 03/M02 A2969 RMK AO2 T00261022 PWINO
 
KTKV - Tomahawk Regnl, Wisconsin, USA
Distance from station: ESE 67mi, 108km
Updated: Mon, 28-Nov-2022 2:55pm CST
Clear
Clear
 Wind from calm
Wind: Calm
Temperature: 37°F , 3°C
Dew Point: 27°F , -3°C
Humidity: 65%
Barometer: 29.71 inHg , 1006.1 hPa
Clouds: Clear
Visibility: 10 miles , 16 km
2022/11/28 20:55 KTKV 282055Z AUTO 00000KT 10SM CLR 03/M03 A2971 RMK AO2 T00261035 PWINO
KEAU - Eau Claire, Wisconsin, USA
Distance from station: SSW 73mi, 117km
Updated: Mon, 28-Nov-2022 2:56pm CST
Overcast
Overcast
 Wind from SSE
Wind: SSE 16 mph , 26 km/h
Temperature: 41°F , 5°C
Wind Chill: 33°F , 1°C
Dew Point: 21°F , -6°C
Humidity: 45%
Barometer: 29.64 inHg , 1003.7 hPa
Clouds: Overcast
Visibility: 10 miles , 16 km
Cloud details: Overcast 5000 ft
2022/11/28 20:56 KEAU 282056Z 16014KT 10SM OVC050 05/M06 A2964 RMK AO2 SLP049 T00501056 56028
 
KDYT - Duluth (sky Harb, Minnesota, USA
Distance from station: NW 74mi, 119km
Updated: Mon, 28-Nov-2022 2:55pm CST
Overcast
Overcast
 Wind from varies
Wind: varies 7 mph , 11 km/h
Temperature: 34°F , 1°C
Wind Chill: 28°F , -2°C
Dew Point: 28°F , -2°C
Humidity: 81%
Barometer: 29.64 inHg , 1003.7 hPa
Clouds: Overcast
Visibility: 10 miles , 16 km
Cloud details: Mostly cloudy 5000 ft
Overcast 5500 ft
2022/11/28 20:55 KDYT 282055Z AUTO VRB06KT 040V120 10SM BKN050 OVC055 01/M02 A2964 RMK AO2
KSUW - Superior, Wisconsin, USA
Distance from station: NW 74mi, 119km
Updated: Mon, 28-Nov-2022 2:55pm CST
Overcast
Overcast
 Wind from E
Wind: E 3 mph , 6 km/h
Temperature: 34°F , 1°C
Dew Point: 28°F , -2°C
Humidity: 81%
Barometer: 29.65 inHg , 1004.1 hPa
Clouds: Overcast
Visibility: 10 miles , 16 km
Cloud details: Overcast 5000 ft
2022/11/28 20:55 KSUW 282055Z AUTO 08003KT 10SM OVC050 01/M02 A2965 RMK AO2 T00061022
 
KLUM - Menomonie Muni, Wisconsin, USA
Distance from station: SSW 78mi, 126km
Updated: Mon, 28-Nov-2022 2:55pm CST
Clear
Clear
 Wind from SE
Wind: SE 15 mph , 24 km/h
Temperature: 43°F , 6°C
Wind Chill: 36°F , 2°C
Dew Point: 32°F , 0°C
Humidity: 66%
Barometer: 29.65 inHg , 1004.1 hPa
Clouds: Clear
Visibility: 10 miles , 16 km
2022/11/28 20:55 KLUM 282055Z AUTO 14013KT 10SM CLR 06/00 A2965 RMK AO2 T00560001 PWINO
KRHI - Rhinelander, Wisconsin, USA
Distance from station: ESE 79mi, 126km
Updated: Mon, 28-Nov-2022 2:53pm CST
Clear
Clear
 Wind from SE
Wind: SE 8 mph , 13 km/h
Temperature: 36°F , 2°C
Wind Chill: 30°F , -1°C
Dew Point: 23°F , -5°C
Humidity: 60%
Barometer: 29.73 inHg , 1006.8 hPa
Clouds: Clear
Visibility: 10 miles , 16 km
2022/11/28 20:53 KRHI 282053Z AUTO 14007KT 10SM CLR 02/M05 A2973 RMK AO2 SLP086 T00171050 58018